createdAt,value
2023-05-22T00:00:09.441Z,8.60
2023-05-22T00:02:43.660Z,7.60
2023-05-22T00:05:15.315Z,7.50
2023-05-22T00:07:43.746Z,7.70
2023-05-22T00:10:11.679Z,9.70
2023-05-22T00:12:39.166Z,5.90
2023-05-22T00:15:08.136Z,6.90
2023-05-22T00:17:35.771Z,5.80
2023-05-22T00:20:06.150Z,6.10
2023-05-22T00:22:36.553Z,5.00
2023-05-22T00:25:04.988Z,8.40
2023-05-22T00:27:33.343Z,8.00
2023-05-22T00:30:01.735Z,7.70
2023-05-22T00:32:29.424Z,7.80
2023-05-22T00:34:56.950Z,6.90
2023-05-22T00:37:26.206Z,8.80
2023-05-22T00:39:53.874Z,7.80
2023-05-22T00:42:21.573Z,5.20
2023-05-22T00:44:49.501Z,12.70
2023-05-22T00:47:17.125Z,7.50
2023-05-22T00:49:44.671Z,10.10
2023-05-22T00:52:12.790Z,6.40
2023-05-22T00:54:40.346Z,6.60
2023-05-22T00:57:07.899Z,12.30
2023-05-22T00:59:35.913Z,7.70
2023-05-22T01:02:03.486Z,12.40
2023-05-22T01:04:33.215Z,8.00
2023-05-22T01:07:03.392Z,11.40
2023-05-22T01:09:31.046Z,8.90
2023-05-22T01:12:16.064Z,7.00
2023-05-22T01:15:03.239Z,8.40
2023-05-22T01:17:58.209Z,6.60
2023-05-22T01:20:32.737Z,5.50
2023-05-22T01:23:24.810Z,9.60
2023-05-22T01:26:22.115Z,6.00
2023-05-22T01:28:52.793Z,6.20
2023-05-22T01:31:21.599Z,11.30
2023-05-22T01:33:52.738Z,8.30
2023-05-22T01:36:23.002Z,10.00
2023-05-22T01:38:51.697Z,7.10
2023-05-22T01:41:19.621Z,7.10
2023-05-22T01:43:48.159Z,5.60
2023-05-22T01:46:15.805Z,5.60
2023-05-22T01:48:43.340Z,8.60
2023-05-22T01:51:32.884Z,8.70
2023-05-22T01:54:18.539Z,10.60
2023-05-22T01:57:04.100Z,8.80
2023-05-22T01:59:56.776Z,9.80
2023-05-22T02:02:24.577Z,7.30
2023-05-22T02:05:01.288Z,9.10
2023-05-22T02:07:28.885Z,8.80
2023-05-22T02:09:57.491Z,7.00
2023-05-22T02:12:25.038Z,8.40
2023-05-22T02:14:52.687Z,11.10
2023-05-22T02:17:22.521Z,7.90
2023-05-22T02:19:50.020Z,6.40
2023-05-22T02:22:17.571Z,7.10
2023-05-22T02:24:47.716Z,7.40
2023-05-22T02:27:17.242Z,8.10
2023-05-22T02:29:44.783Z,7.20
2023-05-22T02:32:12.518Z,6.90
2023-05-22T02:34:39.971Z,8.80
2023-05-22T02:37:07.525Z,6.80
2023-05-22T02:39:35.096Z,8.70
2023-05-22T02:42:02.647Z,5.80
2023-05-22T02:44:30.157Z,5.00
2023-05-22T02:46:57.912Z,8.90
2023-05-22T02:49:25.440Z,7.00
2023-05-22T02:51:53.715Z,10.10
2023-05-22T02:54:22.259Z,7.90
2023-05-22T02:56:50.982Z,7.90
2023-05-22T02:59:18.582Z,11.10
2023-05-22T03:01:48.791Z,7.30
2023-05-22T03:04:16.287Z,11.90
2023-05-22T03:06:46.658Z,8.00
2023-05-22T03:09:14.696Z,12.60
2023-05-22T03:11:42.438Z,10.60
2023-05-22T03:14:09.862Z,6.60
2023-05-22T03:16:37.569Z,11.60
2023-05-22T03:19:09.637Z,9.40
2023-05-22T03:21:37.499Z,10.40
2023-05-22T03:24:05.254Z,10.60
2023-05-22T03:26:33.835Z,10.30
2023-05-22T03:29:02.155Z,7.00
2023-05-22T03:31:31.872Z,9.50
2023-05-22T03:34:06.401Z,8.70
2023-05-22T03:36:34.934Z,9.30
2023-05-22T03:39:05.784Z,8.70
2023-05-22T03:41:37.493Z,9.10
2023-05-22T03:44:05.109Z,8.30
2023-05-22T03:46:33.403Z,10.00
2023-05-22T03:49:01.025Z,7.10
2023-05-22T03:51:28.718Z,6.40
2023-05-22T03:53:56.283Z,7.60
2023-05-22T03:56:23.699Z,8.40
2023-05-22T03:58:51.253Z,6.30
2023-05-22T04:01:18.827Z,8.00
2023-05-22T04:03:46.367Z,9.30
2023-05-22T04:06:14.055Z,8.80
2023-05-22T04:08:41.569Z,8.60
2023-05-22T04:11:09.042Z,6.60
2023-05-22T04:13:36.583Z,7.20
2023-05-22T04:16:04.764Z,5.90
2023-05-22T04:18:32.351Z,6.10
2023-05-22T04:20:59.892Z,6.10
2023-05-22T04:23:27.526Z,6.40
2023-05-22T04:25:55.898Z,5.90
2023-05-22T04:28:23.405Z,7.30
2023-05-22T04:30:51.036Z,11.60
2023-05-22T04:33:19.037Z,8.50
2023-05-22T04:35:46.497Z,6.80
2023-05-22T04:38:14.122Z,8.20
2023-05-22T04:40:41.866Z,8.40
2023-05-22T04:43:09.586Z,11.80
2023-05-22T04:45:37.065Z,5.70
2023-05-22T04:48:05.027Z,9.00
2023-05-22T04:50:36.370Z,6.60
2023-05-22T04:53:06.777Z,8.10
2023-05-22T04:55:34.679Z,7.20
2023-05-22T04:58:02.130Z,10.10
2023-05-22T05:00:30.539Z,8.10
2023-05-22T05:02:58.143Z,5.40
2023-05-22T05:05:25.783Z,7.50
2023-05-22T05:07:55.187Z,9.00
2023-05-22T05:10:23.895Z,6.70
2023-05-22T05:12:51.463Z,6.00
2023-05-22T05:15:19.197Z,7.00
2023-05-22T05:17:46.947Z,8.10
2023-05-22T05:20:15.348Z,5.50
2023-05-22T05:22:44.493Z,8.40
2023-05-22T05:25:13.739Z,8.20
2023-05-22T05:27:41.504Z,9.10
2023-05-22T05:30:11.141Z,6.60
2023-05-22T05:33:04.742Z,6.70
2023-05-22T05:35:44.789Z,6.60
2023-05-22T05:38:14.134Z,7.30
2023-05-22T05:40:44.931Z,6.00
2023-05-22T05:43:15.545Z,8.00
2023-05-22T05:45:44.203Z,10.20
2023-05-22T05:48:12.652Z,5.90
2023-05-22T05:50:43.547Z,5.50
2023-05-22T05:53:11.564Z,9.20
2023-05-22T05:55:41.821Z,8.00
2023-05-22T05:58:09.956Z,10.00
2023-05-22T06:00:54.065Z,7.50
2023-05-22T06:03:21.737Z,8.80
2023-05-22T06:06:00.301Z,5.30
2023-05-22T06:08:47.741Z,5.80
2023-05-22T06:11:15.277Z,4.60
2023-05-22T06:13:51.575Z,4.90
2023-05-22T06:16:19.170Z,5.80
2023-05-22T06:18:47.774Z,4.80
2023-05-22T06:21:16.473Z,4.50
2023-05-22T06:23:44.080Z,4.50
2023-05-22T06:26:11.682Z,7.10
2023-05-22T06:28:40.325Z,4.80
2023-05-22T06:31:09.965Z,7.30
2023-05-22T06:33:41.019Z,5.90
2023-05-22T06:36:09.900Z,7.00
2023-05-22T06:38:40.898Z,4.00
2023-05-22T06:41:13.946Z,4.90
2023-05-22T06:43:41.636Z,5.40
2023-05-22T06:46:13.001Z,5.70
2023-05-22T06:48:52.448Z,4.40
2023-05-22T06:51:25.260Z,4.20
2023-05-22T06:53:57.123Z,4.80
2023-05-22T06:56:28.174Z,5.20
2023-05-22T06:59:04.265Z,4.10
2023-05-22T07:02:05.998Z,6.30
2023-05-22T07:04:54.035Z,4.30
2023-05-22T07:07:45.024Z,4.40
2023-05-22T07:10:12.936Z,5.30
2023-05-22T07:12:40.353Z,5.20
2023-05-22T07:15:12.382Z,4.50
2023-05-22T07:17:42.277Z,6.80
2023-05-22T07:20:12.670Z,4.80
2023-05-22T07:22:41.888Z,5.80
2023-05-22T07:25:10.087Z,5.20
2023-05-22T07:27:37.568Z,22.80
2023-05-22T07:30:05.965Z,18.40
2023-05-22T07:32:33.979Z,22.10
2023-05-22T07:35:02.413Z,11.30
2023-05-22T07:37:30.562Z,4.80
2023-05-22T07:39:58.401Z,10.40
2023-05-22T07:42:27.731Z,5.20
2023-05-22T07:44:55.319Z,6.80
2023-05-22T07:47:22.877Z,5.90
2023-05-22T07:49:50.729Z,4.50
2023-05-22T07:52:18.492Z,6.70
2023-05-22T07:54:46.853Z,6.40
2023-05-22T07:57:15.964Z,3.90
2023-05-22T07:59:44.520Z,7.80
2023-05-22T08:02:12.352Z,4.90
2023-05-22T08:04:40.208Z,6.30
2023-05-22T08:07:07.790Z,6.90
2023-05-22T08:09:35.353Z,4.70
2023-05-22T08:12:03.401Z,4.60
2023-05-22T08:14:30.870Z,4.10
2023-05-22T08:16:59.601Z,7.70
2023-05-22T08:19:27.273Z,6.70
2023-05-22T08:21:58.540Z,5.70
2023-05-22T08:24:28.985Z,5.90
2023-05-22T08:27:00.893Z,5.40
2023-05-22T08:29:28.964Z,3.60
2023-05-22T08:31:58.584Z,3.70
2023-05-22T08:34:26.827Z,4.50
2023-05-22T08:36:54.408Z,5.20
2023-05-22T08:39:22.052Z,3.50
2023-05-22T08:41:49.491Z,3.40
2023-05-22T08:44:17.053Z,4.50
2023-05-22T08:46:44.631Z,3.80
2023-05-22T08:49:13.273Z,3.30
2023-05-22T08:51:42.710Z,3.50
2023-05-22T08:54:12.995Z,5.20
2023-05-22T08:56:52.959Z,5.50
2023-05-22T08:59:21.391Z,3.40
2023-05-22T09:01:48.955Z,4.70
2023-05-22T09:04:17.193Z,4.00
2023-05-22T09:06:47.804Z,3.70
2023-05-22T09:09:15.374Z,3.80
2023-05-22T09:11:42.910Z,3.40
2023-05-22T09:14:10.880Z,5.30
2023-05-22T09:16:52.157Z,5.80
2023-05-22T09:19:19.998Z,3.90
2023-05-22T09:21:48.315Z,6.00
2023-05-22T09:24:15.882Z,4.50
2023-05-22T09:26:43.425Z,3.90
2023-05-22T09:29:10.959Z,3.40
2023-05-22T09:31:45.129Z,4.10
2023-05-22T09:34:18.057Z,4.10
2023-05-22T09:39:12.980Z,3.40
2023-05-22T09:41:40.554Z,3.00
2023-05-22T09:44:14.268Z,4.80
2023-05-22T09:46:43.149Z,3.60
2023-05-22T09:49:13.237Z,3.20
2023-05-22T09:51:43.342Z,3.60
2023-05-22T09:54:11.594Z,4.00
2023-05-22T09:56:40.260Z,6.00
2023-05-22T09:59:10.002Z,4.30
2023-05-22T10:01:39.313Z,3.80
2023-05-22T10:04:07.024Z,3.20
2023-05-22T10:06:35.352Z,6.20
2023-05-22T10:09:05.467Z,6.00
2023-05-22T10:11:33.801Z,3.60
2023-05-22T10:14:02.206Z,3.40
2023-05-22T10:16:30.660Z,3.70
2023-05-22T10:18:58.413Z,4.30
2023-05-22T10:21:26.341Z,4.10
2023-05-22T10:23:53.762Z,4.70
2023-05-22T10:26:21.920Z,4.10
2023-05-22T10:28:58.518Z,6.30
2023-05-22T10:31:30.561Z,3.90
2023-05-22T10:34:35.583Z,3.20
2023-05-22T10:37:42.787Z,3.50
2023-05-22T10:40:12.399Z,3.30
2023-05-22T10:42:39.918Z,3.40
2023-05-22T10:45:08.488Z,3.40
2023-05-22T10:47:36.167Z,3.80
2023-05-22T10:50:12.758Z,5.50
2023-05-22T10:52:40.692Z,4.50
2023-05-22T10:55:09.800Z,4.10
2023-05-22T10:57:40.570Z,6.20
2023-05-22T11:00:19.076Z,4.80
2023-05-22T11:02:50.144Z,4.60
2023-05-22T11:05:22.045Z,4.60
2023-05-22T11:07:49.603Z,4.50
2023-05-22T11:10:27.586Z,3.20
2023-05-22T11:13:12.124Z,3.40
2023-05-22T11:15:44.414Z,4.00
2023-05-22T11:20:40.793Z,3.30
2023-05-22T11:23:11.754Z,4.60
2023-05-22T11:25:41.606Z,4.40
2023-05-22T11:28:11.246Z,3.40
2023-05-22T11:30:39.079Z,3.30
2023-05-22T11:33:07.051Z,9.90
2023-05-22T11:35:34.710Z,4.20
2023-05-22T11:38:05.159Z,4.20
2023-05-22T11:40:32.850Z,6.00
2023-05-22T11:43:00.401Z,8.30
2023-05-22T11:45:28.038Z,4.30
2023-05-22T11:47:55.590Z,4.30
2023-05-22T11:50:40.280Z,7.30
2023-05-22T11:53:09.146Z,3.40
2023-05-22T11:55:36.767Z,3.40
2023-05-22T11:58:04.787Z,9.50
2023-05-22T12:00:33.030Z,3.90
2023-05-22T12:03:01.370Z,3.70
2023-05-22T12:05:32.514Z,3.50
2023-05-22T12:08:00.694Z,6.70
2023-05-22T12:10:28.730Z,4.30
2023-05-22T12:12:56.833Z,4.20
2023-05-22T12:15:25.780Z,4.50
2023-05-22T12:17:56.464Z,3.60
2023-05-22T12:20:30.661Z,4.80
2023-05-22T12:22:59.348Z,6.20
2023-05-22T12:25:34.326Z,3.80
2023-05-22T12:28:02.299Z,4.20
2023-05-22T12:30:42.415Z,6.10
2023-05-22T12:33:15.379Z,3.70
2023-05-22T12:35:43.497Z,3.80
2023-05-22T12:38:11.579Z,3.10
2023-05-22T12:40:39.907Z,3.60
2023-05-22T12:43:08.318Z,3.80
2023-05-22T12:45:36.664Z,5.70
2023-05-22T12:48:04.793Z,3.90
2023-05-22T12:50:33.005Z,3.70
2023-05-22T12:53:02.519Z,3.70
2023-05-22T12:55:31.490Z,4.30
2023-05-22T12:57:59.482Z,3.90
2023-05-22T13:00:27.511Z,4.00
2023-05-22T13:02:55.761Z,6.80
2023-05-22T13:05:23.906Z,4.10
2023-05-22T13:07:51.868Z,3.80
2023-05-22T13:10:20.007Z,3.60
2023-05-22T13:12:51.578Z,4.50
2023-05-22T13:15:19.837Z,4.10
2023-05-22T13:17:47.915Z,4.60
2023-05-22T13:20:15.923Z,4.20
2023-05-22T13:22:43.911Z,5.00
2023-05-22T13:25:13.902Z,5.70
2023-05-22T13:27:41.850Z,3.70
2023-05-22T13:30:10.367Z,4.60
2023-05-22T13:32:38.595Z,4.20
2023-05-22T13:35:06.971Z,3.40
2023-05-22T13:37:35.029Z,4.30
2023-05-22T13:40:03.287Z,3.30
2023-05-22T13:42:31.228Z,5.00
2023-05-22T13:44:59.199Z,3.40
2023-05-22T13:47:27.477Z,3.90
2023-05-22T13:49:55.527Z,3.60
2023-05-22T13:52:23.594Z,3.70
2023-05-22T13:54:51.905Z,3.30
2023-05-22T13:57:19.848Z,5.70
2023-05-22T13:59:47.889Z,5.50
2023-05-22T14:02:16.215Z,8.30
2023-05-22T14:04:45.155Z,6.00
2023-05-22T14:07:14.794Z,4.30
2023-05-22T14:09:42.821Z,3.30
2023-05-22T14:12:10.852Z,4.00
2023-05-22T14:14:38.803Z,4.90
2023-05-22T14:17:08.002Z,3.80
2023-05-22T14:19:36.416Z,6.30
2023-05-22T14:22:04.748Z,3.40
2023-05-22T14:24:32.983Z,3.40
2023-05-22T14:27:01.056Z,4.90
2023-05-22T14:29:28.979Z,4.30
2023-05-22T14:32:04.612Z,3.50
2023-05-22T14:34:32.655Z,9.10
2023-05-22T14:37:00.726Z,4.40
2023-05-22T14:39:28.923Z,4.80
2023-05-22T14:41:56.884Z,3.50
2023-05-22T14:44:24.855Z,3.40
2023-05-22T14:46:54.077Z,4.90
2023-05-22T14:49:22.117Z,3.40
2023-05-22T14:51:50.235Z,5.00
2023-05-22T14:54:19.539Z,3.40
2023-05-22T14:56:47.538Z,3.30
2023-05-22T14:59:15.801Z,4.60
2023-05-22T15:01:43.990Z,7.10
2023-05-22T15:04:12.040Z,4.50
2023-05-22T15:06:40.317Z,3.70
2023-05-22T15:09:09.081Z,3.40
2023-05-22T15:11:37.211Z,3.60
2023-05-22T15:14:05.266Z,3.60
2023-05-22T15:16:33.334Z,7.60
2023-05-22T15:19:01.705Z,6.50
2023-05-22T15:21:29.863Z,3.60
2023-05-22T15:23:59.264Z,5.20
2023-05-22T15:26:27.222Z,4.70
2023-05-22T15:29:01.546Z,3.50
2023-05-22T15:31:30.541Z,3.50
2023-05-22T15:33:58.674Z,5.80
2023-05-22T15:36:27.982Z,4.90
2023-05-22T15:38:56.172Z,4.80
2023-05-22T15:41:24.140Z,4.30
2023-05-22T15:43:53.609Z,3.50
2023-05-22T15:46:21.620Z,3.70
2023-05-22T15:48:49.640Z,4.70
2023-05-22T15:51:17.814Z,5.00
2023-05-22T15:53:45.972Z,3.60
2023-05-22T15:56:14.162Z,5.50
2023-05-22T15:58:42.323Z,5.60
2023-05-22T16:01:10.839Z,3.60
2023-05-22T16:03:39.020Z,3.70
2023-05-22T16:06:07.626Z,4.00
2023-05-22T16:08:35.763Z,5.90
2023-05-22T16:11:03.840Z,4.50
2023-05-22T16:13:33.326Z,4.70
2023-05-22T16:16:03.679Z,6.10
2023-05-22T16:18:32.385Z,8.00
2023-05-22T16:21:00.367Z,6.20
2023-05-22T16:23:28.412Z,4.80
2023-05-22T16:25:56.406Z,4.10
2023-05-22T16:28:24.514Z,3.70
2023-05-22T16:30:52.663Z,3.80
2023-05-22T16:33:20.718Z,5.90
2023-05-22T16:35:48.736Z,8.10
2023-05-22T16:38:16.719Z,5.40
2023-05-22T16:40:44.715Z,5.10
2023-05-22T16:43:14.172Z,8.50
2023-05-22T16:45:46.877Z,4.20
2023-05-22T16:48:14.972Z,4.50
2023-05-22T16:50:44.445Z,7.70
2023-05-22T16:53:13.712Z,6.80
2023-05-22T16:55:42.117Z,4.50
2023-05-22T16:58:12.073Z,6.10
2023-05-22T17:00:40.643Z,10.40
2023-05-22T17:03:09.331Z,6.80
2023-05-22T17:05:38.412Z,6.70
2023-05-22T17:08:07.054Z,9.70
2023-05-22T17:10:35.202Z,6.70
2023-05-22T17:13:03.527Z,11.50
2023-05-22T17:15:31.876Z,9.10
2023-05-22T17:18:00.117Z,12.20
2023-05-22T17:20:29.788Z,12.60
2023-05-22T17:22:57.856Z,11.30
2023-05-22T17:25:25.901Z,12.40
2023-05-22T17:27:54.018Z,9.50
2023-05-22T17:30:22.052Z,9.90
2023-05-22T17:32:53.845Z,8.50
2023-05-22T17:35:21.986Z,5.90
2023-05-22T17:37:50.226Z,10.40
2023-05-22T17:40:18.746Z,9.50
2023-05-22T17:42:46.929Z,13.30
2023-05-22T17:45:15.032Z,4.50
2023-05-22T17:47:43.136Z,9.10
2023-05-22T17:50:12.101Z,3.60
2023-05-22T17:52:41.525Z,5.60
2023-05-22T17:55:09.941Z,7.00
2023-05-22T17:57:37.983Z,4.60
2023-05-22T18:00:10.330Z,4.70
2023-05-22T18:02:41.027Z,9.50
2023-05-22T18:05:10.395Z,4.40
2023-05-22T18:07:38.529Z,6.50
2023-05-22T18:10:07.603Z,5.40
2023-05-22T18:12:38.022Z,6.80
2023-05-22T18:15:09.877Z,5.30
2023-05-22T18:17:38.644Z,5.50
2023-05-22T18:20:08.744Z,5.90
2023-05-22T18:22:37.967Z,5.40
2023-05-22T18:25:07.412Z,11.60
2023-05-22T18:27:36.309Z,4.40
2023-05-22T18:30:05.629Z,5.90
2023-05-22T18:32:33.883Z,7.10
2023-05-22T18:35:04.156Z,4.60
2023-05-22T18:37:32.700Z,8.00
2023-05-22T18:40:01.104Z,6.60
2023-05-22T18:42:29.338Z,5.30
2023-05-22T18:44:58.938Z,5.10
2023-05-22T18:47:27.430Z,7.40
2023-05-22T18:49:55.484Z,5.30
2023-05-22T18:52:23.453Z,5.60
2023-05-22T18:54:51.562Z,6.00
2023-05-22T18:57:19.779Z,6.00
2023-05-22T18:59:48.617Z,6.00
2023-05-22T19:02:17.376Z,6.20
2023-05-22T19:04:46.216Z,7.40
2023-05-22T19:07:14.649Z,9.80
2023-05-22T19:09:43.545Z,7.80
2023-05-22T19:12:11.701Z,6.80
2023-05-22T19:14:39.682Z,8.60
2023-05-22T19:17:07.883Z,7.90
2023-05-22T19:19:36.249Z,7.30
2023-05-22T19:22:05.541Z,6.20
2023-05-22T19:24:33.527Z,6.80
2023-05-22T19:27:01.749Z,9.30
2023-05-22T19:29:29.688Z,9.20
2023-05-22T19:31:57.823Z,8.80
2023-05-22T19:34:26.180Z,12.30
2023-05-22T19:36:57.985Z,13.40
2023-05-22T19:39:26.165Z,11.20
2023-05-22T19:41:54.969Z,13.30
2023-05-22T19:44:22.946Z,11.20
2023-05-22T19:46:51.255Z,10.10
2023-05-22T19:49:19.396Z,11.80
2023-05-22T19:51:47.678Z,13.30
2023-05-22T19:54:16.187Z,12.90
2023-05-22T19:56:44.189Z,13.90
2023-05-22T19:59:12.173Z,13.90
2023-05-22T20:01:40.355Z,13.80
2023-05-22T20:04:08.336Z,8.50
2023-05-22T20:06:36.345Z,10.70
2023-05-22T20:09:06.342Z,12.90
2023-05-22T20:11:34.358Z,14.00
2023-05-22T20:14:02.869Z,12.90
2023-05-22T20:16:31.663Z,10.40
2023-05-22T20:18:59.872Z,11.40
2023-05-22T20:21:27.852Z,10.00
2023-05-22T20:23:55.994Z,9.60
2023-05-22T20:26:24.279Z,12.40
2023-05-22T20:28:52.507Z,9.20
2023-05-22T20:31:20.567Z,12.20
2023-05-22T20:33:48.589Z,14.10
2023-05-22T20:36:16.967Z,12.50
2023-05-22T20:38:44.993Z,11.00
2023-05-22T20:41:13.290Z,12.60
2023-05-22T20:43:43.629Z,14.00
2023-05-22T20:46:12.089Z,14.10
2023-05-22T20:48:40.851Z,11.60
2023-05-22T20:51:10.527Z,14.20
2023-05-22T20:53:38.603Z,11.40
2023-05-22T20:56:07.045Z,12.80
2023-05-22T20:58:35.839Z,11.40
2023-05-22T21:01:05.255Z,10.20
2023-05-22T21:03:33.323Z,10.20
2023-05-22T21:06:01.585Z,10.80
2023-05-22T21:08:29.690Z,13.20
2023-05-22T21:10:57.772Z,10.80
2023-05-22T21:13:25.909Z,12.70
2023-05-22T21:15:53.947Z,12.30
2023-05-22T21:18:22.517Z,15.30
2023-05-22T21:20:50.595Z,12.50
2023-05-22T21:23:18.743Z,11.80
2023-05-22T21:25:46.861Z,11.00
2023-05-22T21:28:14.851Z,12.40
2023-05-22T21:30:42.883Z,10.50
2023-05-22T21:33:11.755Z,13.60
2023-05-22T21:35:39.724Z,12.80
2023-05-22T21:38:07.787Z,10.80
2023-05-22T21:40:35.988Z,10.90
2023-05-22T21:43:04.058Z,13.20
2023-05-22T21:45:32.091Z,10.00
2023-05-22T21:48:00.272Z,14.10
2023-05-22T21:50:28.500Z,12.30
2023-05-22T21:52:56.489Z,13.90
2023-05-22T21:55:24.562Z,11.90
2023-05-22T21:57:52.564Z,10.60
2023-05-22T22:00:20.600Z,11.20
2023-05-22T22:02:48.812Z,10.60
2023-05-22T22:05:19.112Z,12.50
2023-05-22T22:07:47.209Z,10.00
2023-05-22T22:10:15.252Z,9.20
2023-05-22T22:12:43.337Z,10.10
2023-05-22T22:15:12.492Z,10.40
2023-05-22T22:17:41.078Z,11.30
2023-05-22T22:20:09.773Z,11.50
2023-05-22T22:22:37.973Z,11.20
2023-05-22T22:25:06.539Z,8.70
2023-05-22T22:27:34.696Z,9.80
2023-05-22T22:30:03.242Z,9.90
2023-05-22T22:32:31.328Z,8.70
2023-05-22T22:34:59.412Z,10.90
2023-05-22T22:37:27.485Z,14.10
2023-05-22T22:39:55.760Z,10.90
2023-05-22T22:42:24.048Z,8.90
2023-05-22T22:44:52.043Z,10.10
2023-05-22T22:47:20.200Z,9.20
2023-05-22T22:49:48.490Z,11.80
2023-05-22T22:52:16.547Z,8.90
2023-05-22T22:54:45.351Z,10.00
2023-05-22T22:57:13.553Z,8.00
2023-05-22T22:59:41.693Z,13.00
2023-05-22T23:02:09.889Z,9.30
2023-05-22T23:04:38.230Z,12.00
2023-05-22T23:07:06.802Z,10.60
2023-05-22T23:09:34.968Z,8.00
2023-05-22T23:12:03.449Z,11.10
2023-05-22T23:14:31.405Z,9.70
2023-05-22T23:16:59.490Z,9.50
2023-05-22T23:19:27.921Z,13.50
2023-05-22T23:21:56.373Z,10.00
2023-05-22T23:24:24.536Z,9.70
2023-05-22T23:26:53.284Z,7.00
2023-05-22T23:29:21.419Z,9.90
2023-05-22T23:31:50.915Z,10.10
2023-05-22T23:34:19.588Z,7.60
2023-05-22T23:36:47.639Z,8.10
2023-05-22T23:39:15.770Z,11.30
2023-05-22T23:41:44.843Z,8.40
2023-05-22T23:44:12.925Z,10.80
2023-05-22T23:46:41.664Z,8.30
2023-05-22T23:49:10.019Z,7.30
2023-05-22T23:51:38.087Z,7.90
2023-05-22T23:54:06.420Z,8.70
2023-05-22T23:56:34.496Z,9.10
2023-05-22T23:59:02.769Z,7.10
